Terminal Aerodrome Forecast
Issued by NWS Tulsa, OK

Home | Current Version | Previous Version | Text Only | Print | Product List | Glossary On
Versions: 1 2 3 4 5 6 7 8 9 10 11 12 13 14 15 16 17
000
FTUS44 KTSA 272325
TAFTUL
TAF
KTUL 272325Z 2800/2824 VRB04KT P6SM VCTS SCT035CB BKN100
     FM280100 VRB03KT P6SM BKN250
     FM281500 06006KT P6SM SCT100 SCT250
     FM281900 14006KT P6SM SCT040 SCT250=

USA.gov is the U.S. government's official web portal to all federal, state and local government web resources and services.